地図

経路データ

SID SEASON NUMBER BASIN SUBBASIN NAME ISO_TIME NATURE LAT LON WMO_WIND WMO_PRES WMO_AGENCY TRACK_TYPE DIST2LAND LANDFALL IFLAG USA_AGENCY USA_ATCF_ID USA_LAT USA_LON USA_RECORD USA_STATUS USA_WIND USA_PRES USA_SSHS USA_R34_NE USA_R34_SE USA_R34_SW USA_R34_NW USA_R50_NE USA_R50_SE USA_R50_SW USA_R50_NW USA_R64_NE USA_R64_SE USA_R64_SW USA_R64_NW USA_POCI USA_ROCI USA_RMW USA_EYE TOKYO_LAT TOKYO_LON TOKYO_GRADE TOKYO_WIND TOKYO_PRES TOKYO_R50_DIR TOKYO_R50_LONG TOKYO_R50_SHORT TOKYO_R30_DIR TOKYO_R30_LONG TOKYO_R30_SHORT TOKYO_LAND CMA_LAT CMA_LON CMA_CAT CMA_WIND CMA_PRES HKO_LAT HKO_LON HKO_CAT HKO_WIND HKO_PRES NEWDELHI_LAT NEWDELHI_LON NEWDELHI_GRADE NEWDELHI_WIND NEWDELHI_PRES NEWDELHI_CI NEWDELHI_DP NEWDELHI_POCI REUNION_LAT REUNION_LON REUNION_TYPE REUNION_WIND REUNION_PRES REUNION_TNUM REUNION_CI REUNION_RMW REUNION_R34_NE REUNION_R34_SE REUNION_R34_SW REUNION_R34_NW REUNION_R50_NE REUNION_R50_SE REUNION_R50_SW REUNION_R50_NW REUNION_R64_NE REUNION_R64_SE REUNION_R64_SW REUNION_R64_NW BOM_LAT BOM_LON BOM_TYPE BOM_WIND BOM_PRES BOM_TNUM BOM_CI BOM_RMW BOM_R34_NE BOM_R34_SE BOM_R34_SW BOM_R34_NW BOM_R50_NE BOM_R50_SE BOM_R50_SW BOM_R50_NW BOM_R64_NE BOM_R64_SE BOM_R64_SW BOM_R64_NW BOM_ROCI BOM_POCI BOM_EYE BOM_POS_METHOD BOM_PRES_METHOD NADI_LAT NADI_LON NADI_CAT NADI_WIND NADI_PRES WELLINGTON_LAT WELLINGTON_LON WELLINGTON_WIND WELLINGTON_PRES DS824_LAT DS824_LON DS824_STAGE DS824_WIND DS824_PRES TD9636_LAT TD9636_LON TD9636_STAGE TD9636_WIND TD9636_PRES TD9635_LAT TD9635_LON TD9635_WIND TD9635_PRES TD9635_ROCI NEUMANN_LAT NEUMANN_LON NEUMANN_CLASS NEUMANN_WIND NEUMANN_PRES MLC_LAT MLC_LON MLC_CLASS MLC_WIND MLC_PRES USA_GUST BOM_GUST BOM_GUST_PER REUNION_GUST REUNION_GUST_PER USA_SEAHGT USA_SEARAD_NE USA_SEARAD_SE USA_SEARAD_SW USA_SEARAD_NW STORM_SPEED STORM_DIR
1882192N21089 1882 18 NI BB NOT_NAMED 1882-07-11 00:00:00 TS 20.5000 88.5000 main 123 123 _________O____ -1 20.5000 88.5000 TC 45 1 270
1882192N21089 1882 18 NI BB NOT_NAMED 1882-07-11 03:00:00 TS 20.5000 88.4417 main 123 123 _________PO___ -1 20.5000 88.4125 TC 45 20.5000 88.5000 3 2 270
1882192N21089 1882 18 NI BB NOT_NAMED 1882-07-11 06:00:00 TS 20.5000 88.3331 main 123 123 _________OP___ -1 20.5000 88.3000 TC 45 20.5000 88.3828 3 2 270
1882192N21089 1882 18 NI BB NOT_NAMED 1882-07-11 09:00:00 TS 20.5000 88.1982 main 123 116 _________PP___ -1 20.5000 88.1500 TC 45 20.5000 88.2625 3 2 270
1882192N21089 1882 18 NI BB NOT_NAMED 1882-07-11 12:00:00 TS 20.5000 88.0680 main 116 106 _________OP___ -1 20.5000 88.0000 TC 45 20.5000 88.1359 3 2 270
1882192N21089 1882 18 NI BB NOT_NAMED 1882-07-11 15:00:00 TS 20.5000 87.9500 main 106 86 _________PO___ -1 20.5000 87.9000 TC 41 20.5000 88.0000 3 2 270
1882192N21089 1882 18 NI BB NOT_NAMED 1882-07-11 18:00:00 TS 20.5000 87.8273 main 86 76 _________OP___ -1 20.5000 87.8000 TC 37 20.5000 87.8547 3 3 270
1882192N21089 1882 18 NI BB NOT_NAMED 1882-07-11 21:00:00 TS 20.5001 87.6738 main 76 56 _________PP___ -1 20.5000 87.6350 TC 33 20.5001 87.7125 3 3 270
1882192N21089 1882 18 NI BB NOT_NAMED 1882-07-12 00:00:00 TS 20.5000 87.5445 main 56 56 _________OP___ -1 20.5000 87.5000 TC 30 20.5000 87.5891 3 2 270
1882192N21089 1882 18 NI BB NOT_NAMED 1882-07-12 03:00:00 TS 20.5000 87.4888 main 56 56 _________PO___ -1 20.5000 87.4775 TC 30 20.5000 87.5000 1 1 270
1882192N21089 1882 18 NI BB NOT_NAMED 1882-07-12 06:00:00 TS 20.5000 87.4820 main 56 56 _________OP___ -1 20.5000 87.5000 TC 30 20.4999 87.4641 1 0 0
1882192N21089 1882 18 NI BB NOT_NAMED 1882-07-12 09:00:00 TS 20.5000 87.4812 main 56 56 _________PP___ -1 20.5000 87.5000 TC 30 20.4999 87.4625 1 0 0
1882192N21089 1882 18 NI BB NOT_NAMED 1882-07-12 12:00:00 TS 20.5000 87.4898 main 56 56 _________OP___ -1 20.5000 87.5000 TC 30 20.5000 87.4797 1 0 0
1882192N21089 1882 18 NI BB NOT_NAMED 1882-07-12 15:00:00 TS 20.5000 87.5000 main 56 56 _________PO___ -1 20.5000 87.5000 TC 30 20.5000 87.5000 1 1 99
1882192N21089 1882 18 NI BB NOT_NAMED 1882-07-12 18:00:00 TS 20.4915 87.5506 main 66 66 _________OP___ -1 20.5000 87.5000 TC 30 20.4830 87.6012 1 1 99
1882192N21089 1882 18 NI BB NOT_NAMED 1882-07-12 21:00:00 TS 20.4804 87.6272 main 66 66 _________PP___ -1 20.4923 87.5675 TC 30 20.4686 87.6869 1 0 100
1882192N21089 1882 18 NI BB NOT_NAMED 1882-07-13 00:00:00 TS 20.4849 87.5896 main 66 47 _________OP___ -1 20.5000 87.5000 TC 30 20.4699 87.6791 1 3 277
1882192N21089 1882 18 NI BB NOT_NAMED 1882-07-13 03:00:00 TS 20.5136 87.3349 main 38 0 _________PO___ -1 20.5272 87.1698 TC 30 20.5000 87.5000 1 7 278
1882192N21089 1882 18 NI BB NOT_NAMED 1882-07-13 06:00:00 TS 20.5883 86.8235 main 0 0 _________OP___ -1 20.6000 86.6000 TC 30 20.5767 87.0471 1 12 280
1882192N21089 1882 18 NI BB NOT_NAMED 1882-07-13 09:00:00 TS 20.7114 86.1193 main 0 0 _________PP___ -1 20.7432 85.8154 TC 30 20.6795 86.4232 1 14 281
1882192N21089 1882 18 NI BB NOT_NAMED 1882-07-13 12:00:00 TS 20.8462 85.3563 main 0 0 _________OP___ -1 20.9000 85.0000 TC 30 20.7923 85.7126 1 13 281
1882192N21089 1882 18 NI BB NOT_NAMED 1882-07-13 15:00:00 TS 20.9572 84.7099 main 0 0 _________PO___ -1 21.0143 84.4198 TC 30 20.9000 85.0000 1 12 280
1882192N21089 1882 18 NI BB NOT_NAMED 1882-07-13 18:00:00 TS 21.0453 84.1290 main 0 0 _________OP___ -1 21.1000 83.9000 TC 30 20.9905 84.3579 1 11 278
1882192N21089 1882 18 NI BB NOT_NAMED 1882-07-13 21:00:00 TS 21.1191 83.4963 main 0 0 _________PP___ -1 21.1653 83.2550 TC 30 21.0730 83.7377 1 11 276
1882192N21089 1882 18 NI BB NOT_NAMED 1882-07-14 00:00:00 TS 21.1719 82.9368 main 0 0 _________OP___ -1 21.2000 82.7000 TC 30 21.1438 83.1736 1 9 275
1882192N21089 1882 18 NI BB NOT_NAMED 1882-07-14 03:00:00 TS 21.1998 82.5487 main 0 0 _________PO___ -1 21.1996 82.3974 TC 30 21.2000 82.7000 1 6 274
1882192N21089 1882 18 NI BB NOT_NAMED 1882-07-14 06:00:00 TS 21.2170 82.2801 main 0 0 _________OP___ -1 21.2000 82.2000 TC 30 21.2341 82.3603 1 5 276
1882192N21089 1882 18 NI BB NOT_NAMED 1882-07-14 09:00:00 TS 21.2492 82.0335 main 0 0 _________PP___ -1 21.2424 81.9575 TC 30 21.2560 82.1096 1 5 279
1882192N21089 1882 18 NI BB NOT_NAMED 1882-07-14 12:00:00 TS 21.2875 81.8020 main 0 0 _________OP___ -1 21.3000 81.7000 TC 30 21.2750 81.9041 1 5 280
1882192N21089 1882 18 NI BB NOT_NAMED 1882-07-14 15:00:00 TS 21.3250 81.5500 main 0 0 _________PO___ -1 21.3500 81.4000 TC 30 21.3000 81.7000 1 5 279
1882192N21089 1882 18 NI BB NOT_NAMED 1882-07-14 18:00:00 TS 21.3643 81.3071 main 0 0 _________OP___ -1 21.4000 81.1000 TC 30 21.3376 81.4624 1 5 281
1882192N21089 1882 18 NI BB NOT_NAMED 1882-07-14 21:00:00 TS 21.4116 81.0507 main 0 0 _________PP___ -1 21.4500 80.8375 TC 30 21.3860 81.1929 1 5 282
1882192N21089 1882 18 NI BB NOT_NAMED 1882-07-15 00:00:00 TS 21.4610 80.8012 main 0 0 _________OP___ -1 21.5000 80.6000 TC 30 21.4414 80.9019 1 4 282
1882192N21089 1882 18 NI BB NOT_NAMED 1882-07-15 03:00:00 NR 21.5000 80.6000 main 0 __________O___ -1 TC 21.5000 80.6000 1 4 282

IBTrACS Databaseについて

本データベースは、米国NOAAが公開する1842年以降の世界の熱帯低気圧のベストトラックデータアーカイブInternational Best Track Archive for Climate Stewardship (IBTrACS)を、ウェブで閲覧しやすい形式に変換したものです。

最終更新日:2021-12-03